sensor_id;sensor_type;location;lat;lon;timestamp;P1;durP1;ratioP1;P2;durP2;ratioP2
59702;SDS011;45570;48.782;8.332;2022-12-29T10:55:08;2.78;;;1.58;;
59702;SDS011;45570;48.782;8.332;2022-12-29T10:57:43;7.65;;;2.22;;
59702;SDS011;45570;48.782;8.332;2022-12-29T11:00:13;3.53;;;1.90;;
59702;SDS011;45570;48.782;8.332;2022-12-29T11:02:50;3.60;;;2.20;;
59702;SDS011;45570;48.782;8.332;2022-12-29T11:05:28;4.25;;;1.85;;
59702;SDS011;45570;48.782;8.332;2022-12-29T11:08:04;2.38;;;1.40;;
59702;SDS011;45570;48.782;8.332;2022-12-29T11:10:39;1.60;;;1.27;;
59702;SDS011;45570;48.782;8.332;2022-12-29T11:13:13;4.55;;;1.27;;
59702;SDS011;45570;48.782;8.332;2022-12-29T11:15:44;3.65;;;1.55;;
59702;SDS011;45570;48.782;8.332;2022-12-29T11:18:20;3.38;;;1.50;;
59702;SDS011;45570;48.782;8.332;2022-12-29T11:20:51;2.05;;;1.10;;
59702;SDS011;45570;48.782;8.332;2022-12-29T11:23:23;2.53;;;1.00;;
59702;SDS011;45570;48.782;8.332;2022-12-29T11:26:06;1.55;;;0.90;;
59702;SDS011;45570;48.782;8.332;2022-12-29T11:28:47;2.17;;;1.20;;
59702;SDS011;45570;48.782;8.332;2022-12-29T11:31:33;1.53;;;0.87;;
59702;SDS011;45570;48.782;8.332;2022-12-29T11:34:14;2.95;;;1.00;;
59702;SDS011;45570;48.782;8.332;2022-12-29T11:36:46;1.75;;;1.05;;
59702;SDS011;45570;48.782;8.332;2022-12-29T11:39:25;3.67;;;1.63;;
59702;SDS011;45570;48.782;8.332;2022-12-29T11:42:00;2.00;;;1.20;;
59702;SDS011;45570;48.782;8.332;2022-12-29T11:44:32;1.60;;;1.48;;
59702;SDS011;45570;48.782;8.332;2022-12-29T11:47:05;3.47;;;1.33;;
59702;SDS011;45570;48.782;8.332;2022-12-29T11:49:40;3.03;;;1.42;;
59702;SDS011;45570;48.782;8.332;2022-12-29T11:52:09;2.35;;;1.30;;
59702;SDS011;45570;48.782;8.332;2022-12-29T11:54:39;3.78;;;1.75;;
59702;SDS011;45570;48.782;8.332;2022-12-29T11:57:08;2.75;;;1.30;;
59702;SDS011;45570;48.782;8.332;2022-12-29T11:59:40;4.07;;;1.60;;
59702;SDS011;45570;48.782;8.332;2022-12-29T12:02:28;4.82;;;1.70;;
59702;SDS011;45570;48.782;8.332;2022-12-29T12:05:14;3.28;;;1.60;;
59702;SDS011;45570;48.782;8.332;2022-12-29T12:07:49;3.22;;;1.48;;
59702;SDS011;45570;48.782;8.332;2022-12-29T12:10:26;4.32;;;1.77;;
59702;SDS011;45570;48.782;8.332;2022-12-29T12:13:08;4.70;;;1.58;;
59702;SDS011;45570;48.782;8.332;2022-12-29T12:15:47;3.75;;;1.80;;
59702;SDS011;45570;48.782;8.332;2022-12-29T12:18:28;4.45;;;2.38;;
59702;SDS011;45570;48.782;8.332;2022-12-29T12:21:04;3.70;;;1.67;;
59702;SDS011;45570;48.782;8.332;2022-12-29T12:26:11;1.58;;;1.45;;
59702;SDS011;45570;48.782;8.332;2022-12-29T12:28:45;2.20;;;1.70;;
59702;SDS011;45570;48.782;8.332;2022-12-29T12:31:26;4.30;;;1.60;;
59702;SDS011;45570;48.782;8.332;2022-12-29T12:34:04;2.50;;;1.73;;
59702;SDS011;45570;48.782;8.332;2022-12-29T12:36:45;2.40;;;1.75;;
59702;SDS011;45570;48.782;8.332;2022-12-29T12:39:34;3.75;;;1.70;;
59702;SDS011;45570;48.782;8.332;2022-12-29T12:42:17;2.60;;;1.70;;
59702;SDS011;45570;48.782;8.332;2022-12-29T12:44:57;3.30;;;1.80;;
59702;SDS011;45570;48.782;8.332;2022-12-29T12:47:46;2.60;;;1.90;;
59702;SDS011;45570;48.782;8.332;2022-12-29T12:50:28;4.40;;;1.75;;
59702;SDS011;45570;48.782;8.332;2022-12-29T12:53:07;4.07;;;1.80;;
59702;SDS011;45570;48.782;8.332;2022-12-29T12:55:50;2.95;;;1.70;;
59702;SDS011;45570;48.782;8.332;2022-12-29T12:58:31;5.68;;;1.70;;
59702;SDS011;45570;48.782;8.332;2022-12-29T13:01:11;2.70;;;1.50;;
59702;SDS011;45570;48.782;8.332;2022-12-29T13:03:59;9.20;;;2.25;;
59702;SDS011;45570;48.782;8.332;2022-12-29T13:06:41;2.08;;;1.45;;
59702;SDS011;45570;48.782;8.332;2022-12-29T13:09:29;1.98;;;1.65;;
59702;SDS011;45570;48.782;8.332;2022-12-29T13:12:11;4.13;;;1.40;;
59702;SDS011;45570;48.782;8.332;2022-12-29T13:14:51;3.80;;;1.50;;
59702;SDS011;45570;48.782;8.332;2022-12-29T13:17:30;4.07;;;1.58;;
59702;SDS011;45570;48.782;8.332;2022-12-29T13:20:07;2.70;;;1.55;;
59702;SDS011;45570;48.782;8.332;2022-12-29T13:22:47;2.28;;;1.80;;
59702;SDS011;45570;48.782;8.332;2022-12-29T13:25:27;3.45;;;1.83;;
59702;SDS011;45570;48.782;8.332;2022-12-29T13:30:32;2.72;;;1.50;;
59702;SDS011;45570;48.782;8.332;2022-12-29T13:33:06;4.47;;;1.73;;
59702;SDS011;45570;48.782;8.332;2022-12-29T13:35:53;5.90;;;1.95;;
59702;SDS011;45570;48.782;8.332;2022-12-29T13:38:29;2.33;;;1.45;;
59702;SDS011;45570;48.782;8.332;2022-12-29T13:41:03;2.72;;;1.70;;
59702;SDS011;45570;48.782;8.332;2022-12-29T13:43:36;2.47;;;1.70;;
59702;SDS011;45570;48.782;8.332;2022-12-29T13:46:12;1.60;;;1.27;;
59702;SDS011;45570;48.782;8.332;2022-12-29T13:48:46;4.63;;;1.75;;
59702;SDS011;45570;48.782;8.332;2022-12-29T13:51:17;2.50;;;1.75;;
59702;SDS011;45570;48.782;8.332;2022-12-29T13:54:11;2.33;;;1.50;;
59702;SDS011;45570;48.782;8.332;2022-12-29T13:56:48;3.90;;;1.70;;
59702;SDS011;45570;48.782;8.332;2022-12-29T13:59:21;3.70;;;1.95;;
59702;SDS011;45570;48.782;8.332;2022-12-29T14:01:58;4.30;;;1.80;;
59702;SDS011;45570;48.782;8.332;2022-12-29T14:04:32;1.83;;;1.70;;
59702;SDS011;45570;48.782;8.332;2022-12-29T14:07:02;3.20;;;1.88;;
59702;SDS011;45570;48.782;8.332;2022-12-29T14:09:43;2.13;;;1.40;;
59702;SDS011;45570;48.782;8.332;2022-12-29T14:12:31;5.45;;;1.25;;
59702;SDS011;45570;48.782;8.332;2022-12-29T14:15:02;2.20;;;1.40;;
59702;SDS011;45570;48.782;8.332;2022-12-29T14:18:04;2.03;;;1.33;;
59702;SDS011;45570;48.782;8.332;2022-12-29T14:20:39;4.95;;;1.50;;
59702;SDS011;45570;48.782;8.332;2022-12-29T14:23:26;4.07;;;1.58;;
59702;SDS011;45570;48.782;8.332;2022-12-29T14:26:13;1.73;;;1.30;;
59702;SDS011;45570;48.782;8.332;2022-12-29T14:28:44;2.80;;;2.00;;
59702;SDS011;45570;48.782;8.332;2022-12-29T14:31:33;2.42;;;1.20;;
59702;SDS011;45570;48.782;8.332;2022-12-29T14:34:29;2.33;;;1.50;;
59702;SDS011;45570;48.782;8.332;2022-12-29T14:37:17;2.20;;;1.50;;
59702;SDS011;45570;48.782;8.332;2022-12-29T14:40:02;3.72;;;1.50;;
59702;SDS011;45570;48.782;8.332;2022-12-29T14:42:33;8.27;;;2.13;;
59702;SDS011;45570;48.782;8.332;2022-12-29T14:45:02;4.38;;;1.80;;
59702;SDS011;45570;48.782;8.332;2022-12-29T14:47:36;4.90;;;2.08;;
59702;SDS011;45570;48.782;8.332;2022-12-29T14:50:12;4.20;;;1.55;;
59702;SDS011;45570;48.782;8.332;2022-12-29T14:52:44;2.13;;;1.40;;
59702;SDS011;45570;48.782;8.332;2022-12-29T14:55:30;3.50;;;1.10;;
59702;SDS011;45570;48.782;8.332;2022-12-29T14:58:07;2.95;;;1.00;;
59702;SDS011;45570;48.782;8.332;2022-12-29T15:00:42;3.92;;;1.00;;
59702;SDS011;45570;48.782;8.332;2022-12-29T15:03:14;3.38;;;0.88;;
59702;SDS011;45570;48.782;8.332;2022-12-29T15:05:50;2.53;;;0.80;;
59702;SDS011;45570;48.782;8.332;2022-12-29T15:08:22;2.58;;;1.17;;
59702;SDS011;45570;48.782;8.332;2022-12-29T15:10:53;1.20;;;0.85;;
59702;SDS011;45570;48.782;8.332;2022-12-29T15:13:32;1.17;;;0.60;;
59702;SDS011;45570;48.782;8.332;2022-12-29T15:16:02;2.13;;;0.70;;
59702;SDS011;45570;48.782;8.332;2022-12-29T15:18:32;2.78;;;0.90;;
59702;SDS011;45570;48.782;8.332;2022-12-29T15:21:03;1.20;;;0.60;;
59702;SDS011;45570;48.782;8.332;2022-12-29T15:23:34;3.05;;;0.70;;
59702;SDS011;45570;48.782;8.332;2022-12-29T15:26:05;3.30;;;0.80;;
59702;SDS011;45570;48.782;8.332;2022-12-29T15:28:39;2.50;;;0.82;;
59702;SDS011;45570;48.782;8.332;2022-12-29T15:31:10;1.48;;;0.90;;
59702;SDS011;45570;48.782;8.332;2022-12-29T15:33:41;2.25;;;0.90;;
59702;SDS011;45570;48.782;8.332;2022-12-29T15:36:13;2.25;;;1.00;;
59702;SDS011;45570;48.782;8.332;2022-12-29T15:38:45;3.05;;;1.00;;
59702;SDS011;45570;48.782;8.332;2022-12-29T15:41:22;2.35;;;0.90;;
59702;SDS011;45570;48.782;8.332;2022-12-29T15:44:00;1.38;;;0.80;;
59702;SDS011;45570;48.782;8.332;2022-12-29T15:46:36;3.55;;;0.90;;
59702;SDS011;45570;48.782;8.332;2022-12-29T15:49:06;2.53;;;0.82;;
59702;SDS011;45570;48.782;8.332;2022-12-29T15:51:38;1.63;;;0.77;;
59702;SDS011;45570;48.782;8.332;2022-12-29T15:54:12;2.25;;;0.73;;
59702;SDS011;45570;48.782;8.332;2022-12-29T15:56:45;2.33;;;0.88;;
59702;SDS011;45570;48.782;8.332;2022-12-29T15:59:22;2.58;;;0.93;;
59702;SDS011;45570;48.782;8.332;2022-12-29T16:01:52;1.50;;;0.90;;
59702;SDS011;45570;48.782;8.332;2022-12-29T16:04:22;2.45;;;0.73;;
59702;SDS011;45570;48.782;8.332;2022-12-29T16:06:56;2.33;;;1.02;;
59702;SDS011;45570;48.782;8.332;2022-12-29T16:09:30;2.97;;;1.50;;
59702;SDS011;45570;48.782;8.332;2022-12-29T16:12:00;2.10;;;1.00;;
59702;SDS011;45570;48.782;8.332;2022-12-29T16:14:32;2.10;;;0.80;;
59702;SDS011;45570;48.782;8.332;2022-12-29T16:17:05;5.88;;;2.45;;
59702;SDS011;45570;48.782;8.332;2022-12-29T16:19:34;1.05;;;0.80;;
59702;SDS011;45570;48.782;8.332;2022-12-29T16:22:10;1.00;;;0.88;;
59702;SDS011;45570;48.782;8.332;2022-12-29T16:24:43;4.40;;;1.35;;
59702;SDS011;45570;48.782;8.332;2022-12-29T16:27:15;3.58;;;1.10;;
59702;SDS011;45570;48.782;8.332;2022-12-29T16:29:49;2.78;;;0.85;;
59702;SDS011;45570;48.782;8.332;2022-12-29T16:32:24;2.30;;;1.10;;
59702;SDS011;45570;48.782;8.332;2022-12-29T16:35:01;1.33;;;0.73;;
59702;SDS011;45570;48.782;8.332;2022-12-29T16:37:39;4.25;;;1.10;;
59702;SDS011;45570;48.782;8.332;2022-12-29T16:40:22;2.80;;;0.85;;
59702;SDS011;45570;48.782;8.332;2022-12-29T16:42:57;1.98;;;0.80;;
59702;SDS011;45570;48.782;8.332;2022-12-29T16:45:52;2.10;;;0.75;;
59702;SDS011;45570;48.782;8.332;2022-12-29T16:48:46;3.13;;;1.17;;
59702;SDS011;45570;48.782;8.332;2022-12-29T16:51:18;1.63;;;0.60;;
59702;SDS011;45570;48.782;8.332;2022-12-29T16:53:58;1.23;;;0.75;;
59702;SDS011;45570;48.782;8.332;2022-12-29T16:56:28;1.85;;;0.70;;
59702;SDS011;45570;48.782;8.332;2022-12-29T16:59:01;4.25;;;0.70;;
